Aérodrome :
LOGIN :

S'inscrire | Disclaimer

   EN    FR    IT 

 










Légende :    VFR   VFR Marginal   IFR   IFR Intensif   IFR Très Intensif
Visi : 
Plafond : 
>= 8 km
>= 3000ft
5 à 8 km
1000 à 3000 ft
1500m à 5 km
500 à 1000 ft
800 à 1500m
200 à 500 ft
< 800m
< 200 ft
Symboles :   Orages  Brouillard  Fortes neiges  Fortes précipitations  Vent > 20 kt
SIGMETs :   Divers  Orages  Givrage  Turbulence  Onde Orograph.  Cendres Volcan.







- Altitude de l'aérodrome : 1058 ft
- Code IATA : SCN


EDDR - Saarbrücken

DERNIER METAR :
  • 211020Z 24021G31KT 200V260 9999 -RA SCT043 BKN140 BKN250 22/11 Q1011 NOSIG

METARs EXPIRÉS :
  • 210950Z 23017KT 9999 FEW040 SCT093 BKN250 22/12 Q1011 NOSIG
  • 210920Z 23014G27KT 9999 FEW040 SCT095 BKN250 21/13 Q1011 NOSIG
  • 210850Z 23014KT 200V260 9999 FEW040 SCT093 BKN250 21/14 Q1011 BECMG 25015G25KT
  • 210820Z 23014KT 9999 FEW035 SCT083 BKN260 21/14 Q1011 BECMG 25015G25KT
  • 210750Z 21009KT 9999 FEW038 SCT100 BKN260 19/13 Q1011 BECMG 25015G25KT

TAF TAF EDDR
Valide du 21 à 06h jusqu'au 22 à 06h UTC


210500Z 2106/2206 20006KT CAVOK
BECMG 2106/2109 23015G25KT
TEMPO 2111/2115 25020G30KT RA BKN014
BECMG 2115/2118 26009KT
Pas de NOTAMs connus pour ce terrain.



MET'MAP, la Météo Aéronautique d'un coup d'oeil ! - Copyright ORBIFLY Décembre 2007 - Disclaimer

ORBIFLY MET'MAP TEAM :

Programmation & Développement : Alexandra Zaïnal
Conception & Développement : Baudouin d'Aumeries
Co-Programmation & Développement : Marc-Olivier Méhu
Soutien technique & logistique : Manuel Goepfert

Contact : metmap@orbifly.com




SOURCES & CREDITS :

   NOAA